sensor_id;sensor_type;location;lat;lon;timestamp;pressure;altitude;pressure_sealevel;temperature;humidity
3464;BME280;3551;41.578;24.706;2024-01-30T00:01:03;92700.00;;;-1.33;63.63
3464;BME280;3551;41.578;24.706;2024-01-30T00:03:29;92706.94;;;-0.99;63.50
3464;BME280;3551;41.578;24.706;2024-01-30T00:05:58;92733.53;;;-0.87;63.33
3464;BME280;3551;41.578;24.706;2024-01-30T00:08:24;92691.47;;;-0.82;63.37
3464;BME280;3551;41.578;24.706;2024-01-30T00:10:51;92744.13;;;-0.74;63.18
3464;BME280;3551;41.578;24.706;2024-01-30T00:13:18;92701.09;;;-0.78;63.83
3464;BME280;3551;41.578;24.706;2024-01-30T00:15:45;92709.91;;;-0.69;63.67
3464;BME280;3551;41.578;24.706;2024-01-30T00:18:12;92720.06;;;-0.99;61.98
3464;BME280;3551;41.578;24.706;2024-01-30T00:20:39;92719.34;;;-0.86;62.06
3464;BME280;3551;41.578;24.706;2024-01-30T00:23:07;92709.91;;;-0.87;62.21
3464;BME280;3551;41.578;24.706;2024-01-30T00:25:34;92693.09;;;-0.86;64.90
3464;BME280;3551;41.578;24.706;2024-01-30T00:28:01;92688.53;;;-0.81;63.56
3464;BME280;3551;41.578;24.706;2024-01-30T00:30:28;92705.09;;;-0.62;62.39
3464;BME280;3551;41.578;24.706;2024-01-30T00:32:55;92695.91;;;-0.64;60.97
3464;BME280;3551;41.578;24.706;2024-01-30T00:35:22;92705.34;;;-1.19;61.88
3464;BME280;3551;41.578;24.706;2024-01-30T00:37:49;92694.13;;;-1.25;62.93
3464;BME280;3551;41.578;24.706;2024-01-30T00:40:17;92687.66;;;-1.32;62.76
3464;BME280;3551;41.578;24.706;2024-01-30T00:42:44;92682.66;;;-1.10;65.41
3464;BME280;3551;41.578;24.706;2024-01-30T00:45:12;92687.63;;;-1.51;63.52
3464;BME280;3551;41.578;24.706;2024-01-30T00:47:39;92688.94;;;-1.30;64.72
3464;BME280;3551;41.578;24.706;2024-01-30T00:50:07;92678.16;;;-1.47;63.80
3464;BME280;3551;41.578;24.706;2024-01-30T00:52:34;92689.44;;;-1.28;67.86
3464;BME280;3551;41.578;24.706;2024-01-30T00:55:01;92682.81;;;-1.20;66.87
3464;BME280;3551;41.578;24.706;2024-01-30T00:57:29;92688.47;;;-1.13;67.15
3464;BME280;3551;41.578;24.706;2024-01-30T00:59:56;92708.25;;;-1.02;64.43
3464;BME280;3551;41.578;24.706;2024-01-30T01:02:23;92675.63;;;-1.15;63.86
3464;BME280;3551;41.578;24.706;2024-01-30T01:04:50;92679.38;;;-1.02;64.06
3464;BME280;3551;41.578;24.706;2024-01-30T01:07:17;92683.66;;;-1.06;66.43
3464;BME280;3551;41.578;24.706;2024-01-30T01:09:44;92714.03;;;-1.00;67.07
3464;BME280;3551;41.578;24.706;2024-01-30T01:12:10;92688.19;;;-1.11;64.88
3464;BME280;3551;41.578;24.706;2024-01-30T01:14:39;92682.91;;;-1.30;66.88
3464;BME280;3551;41.578;24.706;2024-01-30T01:17:05;92676.91;;;-1.12;65.97
3464;BME280;3551;41.578;24.706;2024-01-30T01:19:32;92694.53;;;-0.94;68.82
3464;BME280;3551;41.578;24.706;2024-01-30T01:21:59;92677.56;;;-1.20;65.23
3464;BME280;3551;41.578;24.706;2024-01-30T01:24:26;92688.81;;;-1.20;69.41
3464;BME280;3551;41.578;24.706;2024-01-30T01:26:53;92686.16;;;-1.38;66.37
3464;BME280;3551;41.578;24.706;2024-01-30T01:29:21;92687.16;;;-1.34;65.56
3464;BME280;3551;41.578;24.706;2024-01-30T01:31:55;92686.50;;;-1.45;65.08
3464;BME280;3551;41.578;24.706;2024-01-30T01:34:22;92675.38;;;-1.37;68.72
3464;BME280;3551;41.578;24.706;2024-01-30T01:36:49;92671.50;;;-1.21;69.14
3464;BME280;3551;41.578;24.706;2024-01-30T01:39:16;92681.16;;;-0.97;69.07
3464;BME280;3551;41.578;24.706;2024-01-30T01:41:43;92694.38;;;-1.45;65.31
3464;BME280;3551;41.578;24.706;2024-01-30T01:44:10;92691.19;;;-1.42;65.86
3464;BME280;3551;41.578;24.706;2024-01-30T01:46:37;92667.09;;;-1.25;65.19
3464;BME280;3551;41.578;24.706;2024-01-30T01:49:06;92670.59;;;-1.11;63.83
3464;BME280;3551;41.578;24.706;2024-01-30T01:51:35;92682.38;;;-1.51;63.15
3464;BME280;3551;41.578;24.706;2024-01-30T01:54:04;92683.09;;;-1.45;63.36
3464;BME280;3551;41.578;24.706;2024-01-30T01:56:33;92687.16;;;-1.34;65.40
3464;BME280;3551;41.578;24.706;2024-01-30T01:59:05;92673.31;;;-1.40;67.41
3464;BME280;3551;41.578;24.706;2024-01-30T02:01:33;92674.94;;;-1.20;68.08
3464;BME280;3551;41.578;24.706;2024-01-30T02:04:00;92690.53;;;-1.29;64.68
3464;BME280;3551;41.578;24.706;2024-01-30T02:06:28;92677.50;;;-1.39;67.35
3464;BME280;3551;41.578;24.706;2024-01-30T02:08:55;92676.84;;;-1.26;68.14
3464;BME280;3551;41.578;24.706;2024-01-30T02:11:22;92684.91;;;-1.41;66.77
3464;BME280;3551;41.578;24.706;2024-01-30T02:13:49;92692.84;;;-1.69;65.31
3464;BME280;3551;41.578;24.706;2024-01-30T02:16:16;92677.59;;;-1.67;65.32
3464;BME280;3551;41.578;24.706;2024-01-30T02:18:43;92708.66;;;-1.80;65.15
3464;BME280;3551;41.578;24.706;2024-01-30T02:21:14;92675.22;;;-1.45;66.89
3464;BME280;3551;41.578;24.706;2024-01-30T02:23:43;92674.25;;;-1.31;66.33
3464;BME280;3551;41.578;24.706;2024-01-30T02:26:09;92687.34;;;-1.26;66.23
3464;BME280;3551;41.578;24.706;2024-01-30T02:28:36;92665.47;;;-1.21;65.34
3464;BME280;3551;41.578;24.706;2024-01-30T02:31:03;92678.78;;;-1.36;64.21
3464;BME280;3551;41.578;24.706;2024-01-30T02:33:30;92674.41;;;-1.41;64.78
3464;BME280;3551;41.578;24.706;2024-01-30T02:35:57;92677.63;;;-1.49;63.86
3464;BME280;3551;41.578;24.706;2024-01-30T02:38:26;92673.66;;;-1.23;65.26
3464;BME280;3551;41.578;24.706;2024-01-30T02:40:54;92705.63;;;-1.02;68.38
3464;BME280;3551;41.578;24.706;2024-01-30T02:43:21;92688.53;;;-1.18;63.12
3464;BME280;3551;41.578;24.706;2024-01-30T02:45:48;92681.00;;;-1.43;69.05
3464;BME280;3551;41.578;24.706;2024-01-30T02:48:15;92666.31;;;-1.44;64.26
3464;BME280;3551;41.578;24.706;2024-01-30T02:50:42;92668.53;;;-1.56;64.09
3464;BME280;3551;41.578;24.706;2024-01-30T02:53:09;92679.97;;;-1.47;64.91
3464;BME280;3551;41.578;24.706;2024-01-30T02:55:37;92656.31;;;-1.42;64.43
3464;BME280;3551;41.578;24.706;2024-01-30T02:58:04;92661.81;;;-1.62;64.20
3464;BME280;3551;41.578;24.706;2024-01-30T03:00:31;92654.44;;;-1.60;64.57
3464;BME280;3551;41.578;24.706;2024-01-30T03:02:58;92657.66;;;-1.45;63.83
3464;BME280;3551;41.578;24.706;2024-01-30T03:05:25;92672.22;;;-1.57;65.08
3464;BME280;3551;41.578;24.706;2024-01-30T03:07:51;92660.44;;;-1.36;66.42
3464;BME280;3551;41.578;24.706;2024-01-30T03:10:18;92674.56;;;-1.32;64.39
3464;BME280;3551;41.578;24.706;2024-01-30T03:12:47;92663.28;;;-1.33;64.36
3464;BME280;3551;41.578;24.706;2024-01-30T03:15:13;92699.19;;;-1.76;63.19
3464;BME280;3551;41.578;24.706;2024-01-30T03:17:40;92661.25;;;-1.83;64.25
3464;BME280;3551;41.578;24.706;2024-01-30T03:20:08;92661.94;;;-1.96;65.02
3464;BME280;3551;41.578;24.706;2024-01-30T03:22:35;92643.91;;;-2.03;65.56
3464;BME280;3551;41.578;24.706;2024-01-30T03:25:03;92644.53;;;-1.87;65.19
3464;BME280;3551;41.578;24.706;2024-01-30T03:27:30;92655.69;;;-1.77;65.32
3464;BME280;3551;41.578;24.706;2024-01-30T03:29:58;92651.31;;;-1.86;64.74
3464;BME280;3551;41.578;24.706;2024-01-30T03:32:25;92673.81;;;-1.80;64.75
3464;BME280;3551;41.578;24.706;2024-01-30T03:34:52;92636.13;;;-1.65;64.07
3464;BME280;3551;41.578;24.706;2024-01-30T03:37:19;92653.09;;;-1.58;67.30
3464;BME280;3551;41.578;24.706;2024-01-30T03:39:46;92645.44;;;-1.54;63.52
3464;BME280;3551;41.578;24.706;2024-01-30T03:42:13;92634.25;;;-1.41;63.54
3464;BME280;3551;41.578;24.706;2024-01-30T03:44:39;92640.72;;;-1.34;62.58
3464;BME280;3551;41.578;24.706;2024-01-30T03:47:08;92633.50;;;-1.65;63.29
3464;BME280;3551;41.578;24.706;2024-01-30T03:49:35;92667.28;;;-1.83;64.93
3464;BME280;3551;41.578;24.706;2024-01-30T03:52:02;92665.44;;;-1.40;63.85
3464;BME280;3551;41.578;24.706;2024-01-30T03:54:29;92623.28;;;-1.25;65.79
3464;BME280;3551;41.578;24.706;2024-01-30T03:56:55;92642.22;;;-1.09;64.16
3464;BME280;3551;41.578;24.706;2024-01-30T03:59:23;92635.28;;;-1.00;65.90
3464;BME280;3551;41.578;24.706;2024-01-30T04:01:50;92619.88;;;-1.25;65.69
3464;BME280;3551;41.578;24.706;2024-01-30T04:04:19;92634.19;;;-1.55;64.02
3464;BME280;3551;41.578;24.706;2024-01-30T04:06:46;92658.69;;;-1.46;64.46
3464;BME280;3551;41.578;24.706;2024-01-30T04:09:13;92635.91;;;-1.69;64.27
3464;BME280;3551;41.578;24.706;2024-01-30T04:11:40;92644.97;;;-1.80;65.44
3464;BME280;3551;41.578;24.706;2024-01-30T04:14:07;92650.75;;;-1.59;64.31
3464;BME280;3551;41.578;24.706;2024-01-30T04:16:34;92630.63;;;-1.64;66.63
3464;BME280;3551;41.578;24.706;2024-01-30T04:19:01;92666.88;;;-1.71;65.45
3464;BME280;3551;41.578;24.706;2024-01-30T04:21:29;92638.28;;;-1.49;66.00
3464;BME280;3551;41.578;24.706;2024-01-30T04:23:56;92623.69;;;-1.55;63.97
3464;BME280;3551;41.578;24.706;2024-01-30T04:26:23;92630.00;;;-1.56;64.49
3464;BME280;3551;41.578;24.706;2024-01-30T04:28:50;92642.13;;;-1.41;63.54
3464;BME280;3551;41.578;24.706;2024-01-30T04:31:17;92635.13;;;-1.08;62.98
3464;BME280;3551;41.578;24.706;2024-01-30T04:33:44;92641.22;;;-0.94;63.21
3464;BME280;3551;41.578;24.706;2024-01-30T04:36:11;92644.97;;;-1.19;65.04
3464;BME280;3551;41.578;24.706;2024-01-30T04:38:39;92635.31;;;-1.42;64.93
3464;BME280;3551;41.578;24.706;2024-01-30T04:41:06;92653.28;;;-1.31;67.38
3464;BME280;3551;41.578;24.706;2024-01-30T04:43:33;92623.91;;;-1.33;66.21
3464;BME280;3551;41.578;24.706;2024-01-30T04:45:59;92667.47;;;-1.32;64.60
3464;BME280;3551;41.578;24.706;2024-01-30T04:48:27;92644.63;;;-1.31;65.48
3464;BME280;3551;41.578;24.706;2024-01-30T04:50:53;92638.75;;;-1.23;63.95
3464;BME280;3551;41.578;24.706;2024-01-30T04:53:21;92629.50;;;-1.58;65.27
3464;BME280;3551;41.578;24.706;2024-01-30T04:55:49;92634.25;;;-1.41;65.11
3464;BME280;3551;41.578;24.706;2024-01-30T04:58:16;92624.81;;;-1.42;64.91
3464;BME280;3551;41.578;24.706;2024-01-30T05:00:43;92649.16;;;-1.37;64.03
3464;BME280;3551;41.578;24.706;2024-01-30T05:03:11;92635.97;;;-1.50;65.31
3464;BME280;3551;41.578;24.706;2024-01-30T05:05:38;92633.75;;;-1.62;64.85
3464;BME280;3551;41.578;24.706;2024-01-30T05:08:05;92628.50;;;-2.09;64.52
3464;BME280;3551;41.578;24.706;2024-01-30T05:10:32;92630.56;;;-2.30;67.02
3464;BME280;3551;41.578;24.706;2024-01-30T05:13:00;92628.19;;;-2.03;66.55
3464;BME280;3551;41.578;24.706;2024-01-30T05:15:27;92631.84;;;-2.28;67.15
3464;BME280;3551;41.578;24.706;2024-01-30T05:17:54;92622.59;;;-2.20;66.53
3464;BME280;3551;41.578;24.706;2024-01-30T05:20:21;92637.81;;;-1.98;66.05
3464;BME280;3551;41.578;24.706;2024-01-30T05:22:48;92640.50;;;-2.03;65.97
3464;BME280;3551;41.578;24.706;2024-01-30T05:25:15;92644.75;;;-2.07;66.15
3464;BME280;3551;41.578;24.706;2024-01-30T05:27:42;92644.22;;;-2.09;66.91
3464;BME280;3551;41.578;24.706;2024-01-30T05:30:11;92647.66;;;-1.85;65.50
3464;BME280;3551;41.578;24.706;2024-01-30T05:32:38;92635.75;;;-2.01;66.00
3464;BME280;3551;41.578;24.706;2024-01-30T05:35:05;92649.97;;;-2.31;66.54
3464;BME280;3551;41.578;24.706;2024-01-30T05:37:33;92677.69;;;-2.01;68.05
3464;BME280;3551;41.578;24.706;2024-01-30T05:40:00;92636.16;;;-2.42;67.16
3464;BME280;3551;41.578;24.706;2024-01-30T05:42:27;92632.44;;;-2.36;67.33
3464;BME280;3551;41.578;24.706;2024-01-30T05:44:54;92641.53;;;-1.99;69.36
3464;BME280;3551;41.578;24.706;2024-01-30T05:47:22;92647.81;;;-1.77;66.96
3464;BME280;3551;41.578;24.706;2024-01-30T05:49:49;92647.22;;;-1.50;67.09
3464;BME280;3551;41.578;24.706;2024-01-30T05:52:16;92644.19;;;-1.38;65.70
3464;BME280;3551;41.578;24.706;2024-01-30T05:54:44;92642.00;;;-1.50;65.00
3464;BME280;3551;41.578;24.706;2024-01-30T05:57:11;92673.25;;;-1.77;66.69
3464;BME280;3551;41.578;24.706;2024-01-30T05:59:37;92636.88;;;-2.31;67.31
3464;BME280;3551;41.578;24.706;2024-01-30T06:02:04;92687.13;;;-2.29;68.12
3464;BME280;3551;41.578;24.706;2024-01-30T06:04:33;92680.66;;;-2.37;68.59
3464;BME280;3551;41.578;24.706;2024-01-30T06:07:01;92677.25;;;-2.66;69.43
3464;BME280;3551;41.578;24.706;2024-01-30T06:09:33;92661.06;;;-2.44;70.26
3464;BME280;3551;41.578;24.706;2024-01-30T06:12:00;92662.84;;;-2.35;70.70
3464;BME280;3551;41.578;24.706;2024-01-30T06:14:27;92671.72;;;-2.07;70.17
3464;BME280;3551;41.578;24.706;2024-01-30T06:16:56;92671.06;;;-1.94;71.17
3464;BME280;3551;41.578;24.706;2024-01-30T06:19:23;92670.03;;;-1.93;69.33
3464;BME280;3551;41.578;24.706;2024-01-30T06:21:52;92680.63;;;-1.79;68.69
3464;BME280;3551;41.578;24.706;2024-01-30T06:24:19;92709.72;;;-1.57;67.80
3464;BME280;3551;41.578;24.706;2024-01-30T06:26:46;92682.69;;;-1.76;68.72
3464;BME280;3551;41.578;24.706;2024-01-30T06:29:15;92730.75;;;-1.86;69.76
3464;BME280;3551;41.578;24.706;2024-01-30T06:31:42;92670.19;;;-2.37;70.66
3464;BME280;3551;41.578;24.706;2024-01-30T06:34:09;92691.91;;;-2.36;73.61
3464;BME280;3551;41.578;24.706;2024-01-30T06:36:37;92677.94;;;-2.27;72.23
3464;BME280;3551;41.578;24.706;2024-01-30T06:39:05;92680.25;;;-2.20;72.15
3464;BME280;3551;41.578;24.706;2024-01-30T06:41:33;92664.81;;;-1.98;72.11
3464;BME280;3551;41.578;24.706;2024-01-30T06:44:02;92676.03;;;-1.68;73.04
3464;BME280;3551;41.578;24.706;2024-01-30T06:46:28;92667.34;;;-1.88;70.81
3464;BME280;3551;41.578;24.706;2024-01-30T06:48:56;92673.13;;;-1.91;70.78
3464;BME280;3551;41.578;24.706;2024-01-30T06:51:22;92667.03;;;-2.34;72.12
3464;BME280;3551;41.578;24.706;2024-01-30T06:53:50;92671.13;;;-1.99;73.58
3464;BME280;3551;41.578;24.706;2024-01-30T06:56:18;92697.16;;;-1.84;71.82
3464;BME280;3551;41.578;24.706;2024-01-30T06:58:49;92684.34;;;-1.61;71.40
3464;BME280;3551;41.578;24.706;2024-01-30T07:01:16;92685.28;;;-1.29;71.75
3464;BME280;3551;41.578;24.706;2024-01-30T07:03:43;92677.03;;;-1.64;69.78
3464;BME280;3551;41.578;24.706;2024-01-30T07:06:11;92665.88;;;-1.75;71.00
3464;BME280;3551;41.578;24.706;2024-01-30T07:08:38;92669.09;;;-1.59;70.90
3464;BME280;3551;41.578;24.706;2024-01-30T07:11:05;92658.91;;;-1.61;70.61
3464;BME280;3551;41.578;24.706;2024-01-30T07:13:34;92678.22;;;-1.33;70.57
3464;BME280;3551;41.578;24.706;2024-01-30T07:16:02;92688.03;;;-1.20;69.42
3464;BME280;3551;41.578;24.706;2024-01-30T07:18:28;92686.50;;;-1.02;68.92
3464;BME280;3551;41.578;24.706;2024-01-30T07:20:55;92679.13;;;-1.00;68.40
3464;BME280;3551;41.578;24.706;2024-01-30T07:23:22;92719.53;;;-1.20;68.49
3464;BME280;3551;41.578;24.706;2024-01-30T07:25:49;92682.66;;;-1.29;68.91
3464;BME280;3551;41.578;24.706;2024-01-30T07:28:16;92682.78;;;-1.01;68.63
3464;BME280;3551;41.578;24.706;2024-01-30T07:30:45;92685.84;;;-0.94;68.35
3464;BME280;3551;41.578;24.706;2024-01-30T07:33:14;92695.63;;;-0.81;69.34
3464;BME280;3551;41.578;24.706;2024-01-30T07:35:45;92705.94;;;-0.85;68.10
3464;BME280;3551;41.578;24.706;2024-01-30T07:38:12;92704.38;;;-0.86;68.05
3464;BME280;3551;41.578;24.706;2024-01-30T07:40:41;92673.91;;;-0.68;67.37
3464;BME280;3551;41.578;24.706;2024-01-30T07:43:08;92686.13;;;-0.77;68.04
3464;BME280;3551;41.578;24.706;2024-01-30T08:37:02;92698.13;;;-1.08;69.07
3464;BME280;3551;41.578;24.706;2024-01-30T08:39:29;92688.13;;;-1.06;69.32
3464;BME280;3551;41.578;24.706;2024-01-30T08:41:59;92692.59;;;-0.88;70.71
3464;BME280;3551;41.578;24.706;2024-01-30T08:44:26;92713.44;;;-0.78;70.50
3464;BME280;3551;41.578;24.706;2024-01-30T08:46:54;92701.81;;;-0.72;69.20
3464;BME280;3551;41.578;24.706;2024-01-30T08:49:22;92687.75;;;-0.63;69.01
3464;BME280;3551;41.578;24.706;2024-01-30T08:51:48;92696.91;;;-0.79;67.92
3464;BME280;3551;41.578;24.706;2024-01-30T08:54:17;92726.84;;;-0.98;68.89
3464;BME280;3551;41.578;24.706;2024-01-30T08:56:44;92685.97;;;-1.23;69.32
3464;BME280;3551;41.578;24.706;2024-01-30T08:59:11;92722.75;;;-1.28;69.33
3464;BME280;3551;41.578;24.706;2024-01-30T09:01:38;92693.22;;;-1.15;69.92
3464;BME280;3551;41.578;24.706;2024-01-30T09:04:05;92710.63;;;-1.00;69.21
3464;BME280;3551;41.578;24.706;2024-01-30T09:06:32;92709.00;;;-0.96;68.69
3464;BME280;3551;41.578;24.706;2024-01-30T09:08:59;92694.88;;;-0.82;68.54
3464;BME280;3551;41.578;24.706;2024-01-30T09:11:27;92701.09;;;-0.78;69.11
3464;BME280;3551;41.578;24.706;2024-01-30T09:13:54;92698.66;;;-1.30;69.90
3464;BME280;3551;41.578;24.706;2024-01-30T09:16:30;92697.97;;;-0.98;70.47
3464;BME280;3551;41.578;24.706;2024-01-30T09:18:57;92690.38;;;-0.63;69.64
3464;BME280;3551;41.578;24.706;2024-01-30T09:21:24;92719.09;;;-0.52;70.43
3464;BME280;3551;41.578;24.706;2024-01-30T09:23:54;92700.38;;;-1.02;69.43
3464;BME280;3551;41.578;24.706;2024-01-30T09:26:21;92728.38;;;-1.16;69.46
3464;BME280;3551;41.578;24.706;2024-01-30T09:28:49;92695.66;;;-1.00;71.76
3464;BME280;3551;41.578;24.706;2024-01-30T09:31:16;92686.84;;;-1.09;69.99
3464;BME280;3551;41.578;24.706;2024-01-30T09:33:43;92696.44;;;-1.42;70.07
3464;BME280;3551;41.578;24.706;2024-01-30T09:36:12;92704.84;;;-1.21;70.17
3464;BME280;3551;41.578;24.706;2024-01-30T09:38:40;92711.03;;;-0.93;70.28
3464;BME280;3551;41.578;24.706;2024-01-30T09:41:09;92686.91;;;-0.77;72.53
3464;BME280;3551;41.578;24.706;2024-01-30T09:43:37;92712.53;;;-0.87;68.95
3464;BME280;3551;41.578;24.706;2024-01-30T09:46:08;92675.91;;;-0.60;70.28
3464;BME280;3551;41.578;24.706;2024-01-30T09:48:38;92676.66;;;-0.41;70.06
3464;BME280;3551;41.578;24.706;2024-01-30T09:51:07;92679.06;;;-0.44;68.54
3464;BME280;3551;41.578;24.706;2024-01-30T09:53:37;92716.44;;;-0.85;69.45
3464;BME280;3551;41.578;24.706;2024-01-30T09:56:05;92709.47;;;-1.13;69.77
3464;BME280;3551;41.578;24.706;2024-01-30T09:58:33;92676.91;;;-1.12;70.86
3464;BME280;3551;41.578;24.706;2024-01-30T10:01:00;92684.63;;;-1.21;71.23
3464;BME280;3551;41.578;24.706;2024-01-30T10:03:29;92675.97;;;-1.21;71.34
3464;BME280;3551;41.578;24.706;2024-01-30T10:05:56;92667.31;;;-1.22;70.91
3464;BME280;3551;41.578;24.706;2024-01-30T10:08:23;92665.78;;;-1.23;71.07
3464;BME280;3551;41.578;24.706;2024-01-30T10:10:50;92664.69;;;-1.40;71.43
3464;BME280;3551;41.578;24.706;2024-01-30T10:13:17;92655.19;;;-1.36;72.10
3464;BME280;3551;41.578;24.706;2024-01-30T10:15:47;92662.22;;;-1.13;71.72
3464;BME280;3551;41.578;24.706;2024-01-30T10:18:14;92658.63;;;-1.17;71.36
3464;BME280;3551;41.578;24.706;2024-01-30T10:20:42;92657.84;;;-1.18;72.07
3464;BME280;3551;41.578;24.706;2024-01-30T10:23:09;92659.75;;;-0.86;71.16
3464;BME280;3551;41.578;24.706;2024-01-30T10:25:36;92681.16;;;-1.16;71.92
3464;BME280;3551;41.578;24.706;2024-01-30T10:28:03;92648.25;;;-1.08;72.51
3464;BME280;3551;41.578;24.706;2024-01-30T10:30:30;92650.66;;;-1.12;70.97
3464;BME280;3551;41.578;24.706;2024-01-30T10:32:57;92654.88;;;-1.11;72.31
3464;BME280;3551;41.578;24.706;2024-01-30T10:35:27;92654.97;;;-1.21;72.15
3464;BME280;3551;41.578;24.706;2024-01-30T10:37:57;92671.09;;;-1.09;72.89
3464;BME280;3551;41.578;24.706;2024-01-30T10:40:28;92656.38;;;-0.73;73.56
3464;BME280;3551;41.578;24.706;2024-01-30T10:42:55;92670.41;;;-0.45;72.07
3464;BME280;3551;41.578;24.706;2024-01-30T10:45:22;92670.50;;;-0.50;70.28
3464;BME280;3551;41.578;24.706;2024-01-30T10:47:50;92650.75;;;-0.47;72.28
3464;BME280;3551;41.578;24.706;2024-01-30T10:50:19;92677.19;;;-0.76;71.80
3464;BME280;3551;41.578;24.706;2024-01-30T10:52:47;92659.59;;;-0.94;71.84
3464;BME280;3551;41.578;24.706;2024-01-30T10:55:16;92650.88;;;-1.27;71.96
3464;BME280;3551;41.578;24.706;2024-01-30T10:57:45;92660.59;;;-1.09;71.55
3464;BME280;3551;41.578;24.706;2024-01-30T11:00:13;92695.50;;;-1.08;72.11
3464;BME280;3551;41.578;24.706;2024-01-30T11:02:42;92649.19;;;-0.99;70.94
3464;BME280;3551;41.578;24.706;2024-01-30T11:05:10;92656.06;;;-1.03;71.78
3464;BME280;3551;41.578;24.706;2024-01-30T11:07:39;92646.03;;;-0.83;71.47
3464;BME280;3551;41.578;24.706;2024-01-30T11:10:06;92642.44;;;-1.05;71.01
3464;BME280;3551;41.578;24.706;2024-01-30T11:12:39;92685.81;;;-0.57;70.47
3464;BME280;3551;41.578;24.706;2024-01-30T11:15:10;92647.97;;;-0.88;71.00
3464;BME280;3551;41.578;24.706;2024-01-30T11:17:41;92649.66;;;-0.97;70.79
